Time;durP1;ratioP1;P1;durP2;ratioP2;P2;SDS_P1;SDS_P2;PMS_P1;PMS_P2;Temp;Humidity;BMP_temperature;BMP_pressure;BME280_temperature;BME280_humidity;BME280_pressure;Samples;Min_cycle;Max_cycle;Signal;HPM_P1;HPM_P2
2022/06/15 00:02:10;;;;;;;4.53;2.10;;;;;;;30.33;37.91;99076.84;5118866;28;20099;-82
2022/06/15 00:04:36;;;;;;;3.90;1.80;;;;;;;30.32;38.08;99077.84;5118788;28;20048;-83
2022/06/15 00:07:06;;;;;;;4.63;1.92;;;;;;;30.30;37.92;99078.00;5118672;28;20360;-82
2022/06/15 00:09:32;;;;;;;4.18;1.80;;;;;;;30.30;37.67;99082.56;5118542;28;20030;-83
2022/06/15 00:12:00;;;;;;;5.20;2.03;;;;;;;30.27;38.16;99079.19;5100407;28;20532;-82
2022/06/15 00:14:29;;;;;;;5.30;2.50;;;;;;;30.27;38.16;99081.03;5100547;28;20034;-83
2022/06/15 00:16:55;;;;;;;5.68;2.22;;;;;;;30.26;37.99;99080.19;5118696;28;20026;-83
2022/06/15 00:19:22;;;;;;;5.40;2.00;;;;;;;30.25;38.08;99086.59;5100593;28;20031;-84
2022/06/15 00:21:48;;;;;;;3.92;1.80;;;;;;;30.25;38.20;99080.34;5118375;28;20048;-86
2022/06/15 00:24:14;;;;;;;3.67;1.88;;;;;;;30.23;38.13;99080.53;5118553;28;20023;-85
2022/06/15 00:26:41;;;;;;;3.75;2.05;;;;;;;30.24;38.06;99090.28;5118739;28;20023;-85
2022/06/15 00:29:08;;;;;;;4.22;2.22;;;;;;;30.23;38.22;99093.13;5100821;28;20380;-84
2022/06/15 00:31:34;;;;;;;4.13;1.90;;;;;;;30.22;37.93;99099.53;5100316;28;20023;-82
2022/06/15 00:34:00;;;;;;;4.15;2.05;;;;;;;30.21;38.28;99111.31;5118353;28;20046;-83
2022/06/15 00:36:26;;;;;;;4.85;2.00;;;;;;;30.19;38.25;99108.78;5100057;28;20031;-82
2022/06/15 00:38:54;;;;;;;4.78;2.10;;;;;;;30.20;38.46;99115.81;5100189;28;20037;-82
2022/06/15 00:41:30;;;;;;;4.45;1.90;;;;;;;30.19;38.49;99113.28;5100321;28;20058;-86
2022/06/15 00:43:58;;;;;;;6.65;2.10;;;;;;;30.18;38.29;99112.47;5101590;28;20027;-82
2022/06/15 00:46:31;;;;;;;3.78;1.80;;;;;;;30.17;38.36;99116.16;5101721;28;20123;-84
2022/06/15 00:49:09;;;;;;;4.50;1.90;;;;;;;30.18;38.58;99130.44;5118717;28;20099;-82
2022/06/15 00:51:36;;;;;;;4.55;2.40;;;;;;;30.16;38.82;99129.78;5102638;28;20035;-84
2022/06/15 00:54:03;;;;;;;4.28;2.40;;;;;;;30.15;38.71;99118.16;5099886;28;20023;-82
2022/06/15 00:56:31;;;;;;;4.10;2.00;;;;;;;30.14;38.47;99125.41;5099802;28;20028;-83
2022/06/15 00:59:07;;;;;;;3.17;2.05;;;;;;;30.13;38.47;99126.38;5099818;28;20032;-83
2022/06/15 01:01:33;;;;;;;;;;;;;;;30.14;38.60;99132.63;5118192;28;20027;-82
2022/06/15 01:04:02;;;;;;;4.63;1.95;;;;;;;30.13;38.82;99130.94;5099686;28;19908;-81
2022/06/15 01:06:39;;;;;;;3.53;1.83;;;;;;;30.12;38.89;99123.88;5117563;28;20028;-83
2022/06/15 01:09:27;;;;;;;4.50;2.17;;;;;;;30.11;38.59;99116.81;5117791;28;20031;-83
2022/06/15 01:12:02;;;;;;;3.67;2.03;;;;;;;30.10;38.68;99115.09;5116796;28;20055;-82
2022/06/15 01:14:46;;;;;;;4.25;2.35;;;;;;;30.09;39.08;99118.81;5099158;28;20031;-82
2022/06/15 01:17:22;;;;;;;3.70;2.00;;;;;;;30.09;38.89;99113.44;5099458;28;20024;-83
2022/06/15 01:20:25;;;;;;;4.10;1.88;;;;;;;30.07;38.84;99112.72;5099081;28;20023;-83
2022/06/15 01:23:18;;;;;;;5.03;2.13;;;;;;;30.06;38.91;99111.88;5117745;28;20024;-81
2022/06/15 01:26:09;;;;;;;4.28;1.95;;;;;;;30.05;39.08;99106.66;5099026;28;20125;-82
2022/06/15 01:29:19;;;;;;;4.10;2.00;;;;;;;30.04;39.02;99104.97;5117174;28;20019;-81
2022/06/15 01:32:01;;;;;;;4.03;1.92;;;;;;;30.02;39.04;99089.84;5098844;28;20035;-82
2022/06/15 01:34:56;;;;;;;4.70;1.90;;;;;;;30.03;38.88;99082.63;5117203;28;20034;-82
2022/06/15 01:37:28;;;;;;;4.22;2.28;;;;;;;30.00;38.93;99086.47;5117523;28;20031;-82
2022/06/15 01:40:17;;;;;;;6.18;2.40;;;;;;;29.98;39.22;99091.16;5117099;28;20085;-82
2022/06/15 01:42:51;;;;;;;4.55;1.90;;;;;;;29.98;39.03;99095.72;5099828;28;20031;-81
2022/06/15 01:45:23;;;;;;;3.75;1.90;;;;;;;29.97;39.14;99094.03;5118005;28;20096;-81
2022/06/15 01:47:52;;;;;;;5.15;1.95;;;;;;;29.96;39.31;99101.25;5117502;28;20024;-84
2022/06/15 01:50:23;;;;;;;4.78;1.88;;;;;;;29.96;39.18;99114.69;5098676;28;20031;-83
2022/06/15 01:53:13;;;;;;;3.78;2.03;;;;;;;29.95;39.30;99110.31;5098481;28;20066;-82
2022/06/15 01:55:51;;;;;;;3.92;1.92;;;;;;;29.94;39.25;99122.09;5098422;28;20031;-81
2022/06/15 01:58:21;;;;;;;3.53;1.85;;;;;;;29.93;39.28;99119.56;5117119;28;20031;-81
2022/06/15 02:00:58;;;;;;;3.83;2.20;;;;;;;29.93;39.52;99120.41;5098292;28;20126;-81
2022/06/15 02:03:42;;;;;;;5.07;2.42;;;;;;;29.92;39.44;99129.47;5116467;28;20080;-82
2022/06/15 02:06:33;;;;;;;5.00;2.13;;;;;;;29.91;39.44;99116.19;5116477;28;20019;-82
2022/06/15 02:09:26;;;;;;;4.28;2.15;;;;;;;29.90;39.34;99115.34;5108026;28;20032;-82
2022/06/15 02:11:55;;;;;;;4.82;2.13;;;;;;;29.88;39.40;99112.81;5095046;28;20151;-83
2022/06/15 02:14:31;;;;;;;4.70;2.05;;;;;;;29.87;39.52;99121.03;5095080;28;20024;-81
2022/06/15 02:17:22;;;;;;;4.28;1.90;;;;;;;29.86;39.14;99119.34;5094794;28;20051;-82
2022/06/15 02:19:55;;;;;;;4.68;1.90;;;;;;;29.85;39.67;99121.22;5087540;28;20043;-81
2022/06/15 02:22:26;;;;;;;5.93;2.40;;;;;;;29.84;39.24;99110.63;5095243;28;20024;-81
2022/06/15 02:24:55;;;;;;;4.60;2.50;;;;;;;29.83;39.68;99111.63;5094918;28;20035;-85
2022/06/15 02:27:26;;;;;;;5.40;1.92;;;;;;;29.83;39.60;99114.31;5094944;28;20027;-82
2022/06/15 02:29:56;;;;;;;4.93;2.05;;;;;;;29.81;39.30;99116.28;5096652;28;20032;-83
2022/06/15 02:32:23;;;;;;;5.88;2.33;;;;;;;29.81;39.37;99122.53;5095304;28;20035;-83
2022/06/15 02:34:49;;;;;;;5.50;2.00;;;;;;;29.80;39.54;99122.69;5097287;28;20020;-84
2022/06/15 02:37:15;;;;;;;6.68;2.25;;;;;;;29.80;39.57;99120.00;5096178;28;20105;-85
2022/06/15 02:39:41;;;;;;;4.50;2.03;;;;;;;29.80;39.27;99120.00;5096324;28;20095;-84
2022/06/15 02:42:22;;;;;;;4.53;1.92;;;;;;;29.78;39.47;99122.00;5097410;28;20082;-84
2022/06/15 02:44:51;;;;;;;5.85;2.03;;;;;;;29.78;39.69;99127.38;5096394;28;20024;-82
2022/06/15 02:47:19;;;;;;;6.13;2.30;;;;;;;29.78;39.88;99133.59;5095792;28;20472;-81
2022/06/15 02:49:48;;;;;;;4.13;2.15;;;;;;;29.77;39.40;99123.03;5094496;28;20071;-82
2022/06/15 02:52:15;;;;;;;3.67;1.83;;;;;;;29.78;39.63;99122.00;5094334;28;20028;-81
2022/06/15 02:54:47;;;;;;;5.30;2.00;;;;;;;29.77;39.71;99120.31;5095047;28;20032;-82
2022/06/15 02:57:13;;;;;;;5.43;2.15;;;;;;;29.74;39.86;99122.31;5094025;28;20115;-81
2022/06/15 02:59:41;;;;;;;4.22;1.90;;;;;;;29.76;39.59;99132.09;5094439;28;20039;-82
2022/06/15 03:02:06;;;;;;;5.55;1.90;;;;;;;29.76;39.95;99134.78;5094307;28;20031;-82
2022/06/15 03:04:32;;;;;;;5.22;1.95;;;;;;;29.73;39.74;99134.06;5095149;28;20037;-83
2022/06/15 03:06:58;;;;;;;5.18;2.25;;;;;;;29.73;39.64;99136.78;5094101;28;20088;-82
2022/06/15 03:09:24;;;;;;;4.53;1.83;;;;;;;29.73;39.75;99141.31;5094135;28;20023;-81
2022/06/15 03:11:51;;;;;;;3.60;1.90;;;;;;;29.71;39.81;99141.47;5107774;28;20050;-83
2022/06/15 03:14:20;;;;;;;5.20;2.17;;;;;;;29.71;39.96;99141.47;5097695;28;20179;-83
2022/06/15 03:16:48;;;;;;;3.38;2.05;;;;;;;29.71;40.05;99146.84;5115246;28;20036;-82
2022/06/15 03:19:14;;;;;;;4.90;2.20;;;;;;;29.69;39.76;99140.78;5115275;28;20030;-81
2022/06/15 03:21:40;;;;;;;5.18;1.92;;;;;;;29.69;40.13;99139.94;5097237;28;20460;-82
2022/06/15 03:24:06;;;;;;;5.43;2.17;;;;;;;29.69;40.09;99139.94;5117257;28;20081;-81
2022/06/15 03:26:33;;;;;;;4.90;2.10;;;;;;;29.66;40.04;99130.34;5097338;28;20015;-81
2022/06/15 03:28:58;;;;;;;6.97;2.03;;;;;;;29.67;39.78;99142.78;5115127;28;20077;-81
2022/06/15 03:31:27;;;;;;;4.55;2.08;;;;;;;29.66;40.03;99151.84;5115274;28;20376;-82
2022/06/15 03:33:53;;;;;;;4.75;2.25;;;;;;;29.65;39.76;99157.38;5116162;28;20043;-81
2022/06/15 03:36:22;;;;;;;4.00;1.90;;;;;;;29.64;39.87;99164.63;5101236;28;20034;-81
2022/06/15 03:38:48;;;;;;;4.68;2.10;;;;;;;29.65;39.72;99168.13;5119549;28;20023;-81
2022/06/15 03:41:16;;;;;;;4.28;2.05;;;;;;;29.64;39.78;99153.88;5119297;28;20039;-83
2022/06/15 03:43:41;;;;;;;7.70;2.53;;;;;;;29.64;39.66;99172.69;5101227;28;20024;-81
2022/06/15 03:46:07;;;;;;;5.40;2.22;;;;;;;29.62;39.81;99171.97;5101147;28;20441;-81
2022/06/15 03:48:33;;;;;;;4.95;2.15;;;;;;;29.62;39.71;99174.66;5101124;28;20019;-82
2022/06/15 03:50:59;;;;;;;4.30;1.92;;;;;;;29.61;39.98;99183.75;5119066;28;20051;-82
2022/06/15 03:54:00;;;;;;;4.13;2.15;;;;;;;29.60;39.90;99184.75;5119210;28;20100;-81
2022/06/15 03:57:05;;;;;;;6.65;2.08;;;;;;;29.60;39.94;99179.38;5100617;28;20028;-81
2022/06/15 03:59:31;;;;;;;3.55;2.03;;;;;;;29.58;39.92;99189.44;5119051;28;20092;-80
2022/06/15 04:02:19;;;;;;;5.43;2.17;;;;;;;29.58;40.01;99200.19;5119108;28;20028;-83
2022/06/15 04:11:58;;;;;;;5.13;2.10;;;;;;;29.55;40.29;99208.56;5115982;28;20034;-83
2022/06/15 04:14:04;;;;;;;5.25;2.15;;;;;;;29.54;40.18;99204.19;5079482;28;20079;-83
2022/06/15 04:16:31;;;;;;;7.47;2.35;;;;;;;29.55;39.89;99219.31;5077033;28;20374;-81
2022/06/15 04:19:03;;;;;;;4.90;1.98;;;;;;;29.53;40.29;99215.94;5078357;28;20062;-82
2022/06/15 04:21:31;;;;;;;4.80;2.20;;;;;;;29.52;40.37;99219.63;5078637;28;20434;-81
2022/06/15 04:24:00;;;;;;;5.72;2.08;;;;;;;29.52;40.10;99219.63;5076793;28;20032;-81
2022/06/15 04:26:29;;;;;;;5.63;2.00;;;;;;;29.51;40.11;99215.25;5076967;28;20031;-83
2022/06/15 04:28:55;;;;;;;4.10;2.10;;;;;;;29.50;40.24;99221.63;5077332;28;20020;-82
2022/06/15 04:31:24;;;;;;;5.30;2.40;;;;;;;29.50;40.18;99227.00;5077192;28;20024;-83
2022/06/15 04:34:00;;;;;;;5.78;2.63;;;;;;;29.48;40.03;99222.63;5078039;28;20028;-83
2022/06/15 04:36:31;;;;;;;5.18;1.92;;;;;;;29.47;40.01;99234.34;5078279;28;20479;-83
2022/06/15 04:38:58;;;;;;;5.05;2.22;;;;;;;29.46;40.46;99238.03;5079833;28;20033;-83
2022/06/15 04:41:36;;;;;;;4.05;1.77;;;;;;;29.45;40.46;99241.72;5077492;28;20032;-81
2022/06/15 04:44:13;;;;;;;5.78;2.08;;;;;;;29.46;40.43;99242.56;5078079;28;20027;-81
2022/06/15 04:46:46;;;;;;;6.90;2.67;;;;;;;29.45;40.79;99252.47;5075814;28;20020;-82
2022/06/15 04:49:13;;;;;;;4.90;1.95;;;;;;;29.44;40.19;99250.78;5077905;28;20048;-81
2022/06/15 04:51:53;;;;;;;5.63;2.42;;;;;;;29.44;40.61;99242.72;5076435;28;20025;-85
2022/06/15 04:54:44;;;;;;;3.80;2.10;;;;;;;29.43;40.31;99238.34;5076560;28;20034;-84
2022/06/15 04:57:15;;;;;;;6.15;2.47;;;;;;;29.42;40.31;99247.41;5077018;28;20093;-85
2022/06/15 05:00:50;;;;;;;6.80;2.38;;;;;;;29.43;40.39;99250.91;5076601;28;20031;-82
2022/06/15 05:03:19;;;;;;;6.13;2.08;;;;;;;29.42;40.84;99252.78;5070985;28;20102;-81
2022/06/15 05:05:54;;;;;;;5.15;1.95;;;;;;;29.40;40.74;99262.84;5081154;28;20021;-84
2022/06/15 05:08:20;;;;;;;8.50;2.40;;;;;;;29.41;40.96;99261.84;5077593;28;20036;-83
2022/06/15 05:10:46;;;;;;;6.78;2.58;;;;;;;29.40;40.88;99265.53;5076295;28;20020;-84
2022/06/15 05:13:34;;;;;;;5.30;2.20;;;;;;;29.40;40.69;99276.28;5094517;28;20052;-83
2022/06/15 05:16:04;;;;;;;5.72;2.72;;;;;;;29.40;40.93;99276.28;5094757;28;20043;-83
2022/06/15 05:18:44;;;;;;;6.72;2.10;;;;;;;29.40;40.87;99280.81;5096037;28;20385;-81
2022/06/15 05:21:14;;;;;;;5.93;2.42;;;;;;;29.40;40.76;99284.34;5096269;28;20054;-81
2022/06/15 05:23:40;;;;;;;8.13;2.63;;;;;;;29.38;41.16;99278.28;5096886;28;20028;-81
2022/06/15 05:26:13;;;;;;;5.63;2.47;;;;;;;29.39;41.11;99296.06;5098039;28;20031;-81
2022/06/15 05:28:45;;;;;;;9.02;2.95;;;;;;;29.39;41.08;99296.06;5097200;28;20023;-82
2022/06/15 05:31:18;;;;;;;5.90;2.30;;;;;;;29.39;41.16;99306.81;5095900;28;20024;-81
2022/06/15 05:33:45;;;;;;;6.55;2.78;;;;;;;29.40;41.26;99307.69;5097583;28;20031;-81
2022/06/15 05:36:15;;;;;;;7.03;2.92;;;;;;;29.38;41.39;99310.50;5095938;28;20112;-80
2022/06/15 05:38:47;;;;;;;8.88;2.88;;;;;;;29.38;41.14;99309.69;5095956;28;20031;-83
2022/06/15 05:41:13;;;;;;;6.22;2.60;;;;;;;29.38;41.30;99310.50;5097045;28;20028;-80
2022/06/15 05:43:44;;;;;;;5.70;2.40;;;;;;;29.39;41.18;99322.94;5095982;28;20019;-82
2022/06/15 05:46:34;;;;;;;7.47;2.45;;;;;;;29.37;41.15;99338.41;5097050;28;20039;-81
2022/06/15 05:49:02;;;;;;;6.72;2.15;;;;;;;29.38;40.96;99344.63;5096551;28;20063;-81
2022/06/15 05:51:29;;;;;;;6.10;2.53;;;;;;;29.35;41.18;99337.72;5095547;28;20027;-82
2022/06/15 05:57:52;;;;;;;6.78;2.35;;;;;;;29.35;41.06;99364.59;5095957;28;20426;-82
2022/06/15 06:00:19;;;;;;;7.30;2.67;;;;;;;29.35;40.93;99360.03;5096573;28;20028;-83
2022/06/15 06:02:52;;;;;;;6.07;2.42;;;;;;;29.36;40.92;99371.66;5095291;28;20028;-82
2022/06/15 06:06:13;;;;;;;7.20;3.13;;;;;;;29.33;40.95;99393.44;5098864;28;20016;-82
2022/06/15 06:08:42;;;;;;;7.25;2.65;;;;;;;29.35;41.14;99386.09;5095106;28;20479;-81
2022/06/15 06:11:08;;;;;;;6.50;2.50;;;;;;;29.34;41.16;99385.22;5095634;28;20071;-82
2022/06/15 06:13:34;;;;;;;6.15;2.70;;;;;;;29.35;40.86;99383.41;5094976;28;20075;-82
2022/06/15 06:15:59;;;;;;;5.88;2.65;;;;;;;29.33;41.05;99383.53;5095683;28;20020;-83
2022/06/15 06:18:26;;;;;;;7.50;2.55;;;;;;;29.35;41.19;99391.47;5095729;28;20031;-83
2022/06/15 06:20:53;;;;;;;6.40;2.55;;;;;;;29.34;41.17;99384.38;5095094;28;20034;-83
2022/06/15 06:23:19;;;;;;;6.30;2.40;;;;;;;29.32;41.27;99389.91;5095887;28;20479;-81
2022/06/15 06:25:50;;;;;;;5.32;2.28;;;;;;;29.32;41.23;99391.75;5095001;28;20023;-81
2022/06/15 06:28:24;;;;;;;6.05;2.40;;;;;;;29.33;41.16;99396.97;5096276;28;20499;-82
2022/06/15 06:30:50;;;;;;;4.72;2.25;;;;;;;29.32;40.97;99402.50;5095957;28;20582;-84
2022/06/15 06:33:17;;;;;;;5.95;2.45;;;;;;;29.33;41.20;99404.19;5094746;28;20027;-82
2022/06/15 06:35:47;;;;;;;4.43;2.08;;;;;;;29.34;41.07;99406.72;5096411;28;20032;-82
2022/06/15 06:38:14;;;;;;;5.35;2.45;;;;;;;29.31;40.94;99403.50;5096432;28;20342;-82
2022/06/15 06:40:40;;;;;;;4.85;2.25;;;;;;;29.32;41.05;99402.50;5095323;28;20020;-81
2022/06/15 06:43:06;;;;;;;5.03;2.33;;;;;;;29.31;41.11;99400.81;5094568;28;20096;-83
2022/06/15 06:45:32;;;;;;;4.97;2.35;;;;;;;29.32;40.81;99399.81;5096372;28;20020;-83
2022/06/15 06:48:00;;;;;;;5.57;2.45;;;;;;;29.32;41.00;99402.50;5095146;28;20051;-84
2022/06/15 06:50:27;;;;;;;5.78;2.50;;;;;;;29.31;41.06;99400.81;5094504;28;20027;-84
2022/06/15 06:53:08;;;;;;;;;;;;;;;;;;;;;
2022/06/15 06:55:35;;;;;;;4.90;2.42;;;;;;;29.32;41.15;99410.56;5095419;28;20016;-82
2022/06/15 06:58:07;;;;;;;6.20;2.53;;;;;;;29.33;40.87;99412.25;5096873;28;20024;-81
2022/06/15 07:00:35;;;;;;;4.38;2.13;;;;;;;29.34;41.18;99413.94;5094246;28;20354;-82
2022/06/15 07:03:03;;;;;;;5.32;2.20;;;;;;;29.33;41.13;99414.94;5094350;28;20021;-82
2022/06/15 07:05:32;;;;;;;4.07;2.40;;;;;;;29.32;40.91;99416.78;5095191;28;20027;-83
2022/06/15 07:07:59;;;;;;;5.80;2.50;;;;;;;29.32;41.18;99418.63;5095702;28;20016;-84
2022/06/15 07:10:32;;;;;;;7.15;2.67;;;;;;;29.33;40.99;99434.59;5094494;28;20024;-85
2022/06/15 07:13:06;;;;;;;7.07;2.50;;;;;;;29.34;41.13;99444.34;5108816;28;20050;-87
2022/06/15 07:15:36;;;;;;;4.07;2.30;;;;;;;29.35;40.94;99442.53;5116109;28;20107;-85
2022/06/15 07:18:07;;;;;;;4.78;2.20;;;;;;;29.34;40.80;99440.81;5097626;28;20027;-84
2022/06/15 07:20:36;;;;;;;5.45;2.38;;;;;;;29.36;41.10;99446.91;5115952;28;20020;-81
2022/06/15 07:23:02;;;;;;;6.65;2.70;;;;;;;29.35;41.12;99451.41;5115311;28;20027;-82
2022/06/15 07:25:30;;;;;;;5.60;2.42;;;;;;;29.37;40.77;99459.34;5097280;28;20102;-81
2022/06/15 07:27:57;;;;;;;7.10;2.85;;;;;;;29.37;40.99;99453.97;5097369;28;20116;-82
2022/06/15 07:30:31;;;;;;;4.75;2.38;;;;;;;29.37;40.96;99459.34;5097271;28;20024;-83
2022/06/15 07:32:58;;;;;;;4.60;2.42;;;;;;;29.38;40.99;99452.94;5097042;28;20020;-82
2022/06/15 07:35:34;;;;;;;5.47;2.67;;;;;;;29.39;40.70;99456.50;5115578;28;20080;-84
2022/06/15 07:38:04;;;;;;;;;;;;;;;29.40;40.73;99453.66;5097941;28;20041;-84
2022/06/15 07:40:36;;;;;;;5.63;2.72;;;;;;;29.39;41.02;99462.72;5098883;28;19908;-82
2022/06/15 07:43:03;;;;;;;5.85;2.85;;;;;;;29.41;40.61;99468.78;5097002;28;20034;-83
2022/06/15 07:45:35;;;;;;;7.22;2.80;;;;;;;29.42;40.86;99472.31;5097219;28;20019;-83
2022/06/15 07:50:45;;;;;;;5.15;2.35;;;;;;;29.43;41.03;99484.75;5116480;28;20050;-82
2022/06/15 07:53:34;;;;;;;5.10;2.83;;;;;;;29.44;40.97;99487.28;5115641;28;20080;-84
2022/06/15 07:56:37;;;;;;;5.35;2.33;;;;;;;29.45;40.71;99488.97;5116425;28;20098;-82
2022/06/15 08:00:18;;;;;;;7.30;2.45;;;;;;;29.46;40.58;99488.00;5098314;28;20080;-83
2022/06/15 08:03:19;;;;;;;5.93;2.63;;;;;;;29.47;40.69;99478.94;5108995;28;20032;-83
2022/06/15 08:06:00;;;;;;;4.07;1.92;;;;;;;29.48;40.47;99477.97;5116141;28;20107;-83
2022/06/15 08:08:37;;;;;;;5.88;2.72;;;;;;;29.50;40.38;99479.66;5097484;28;20028;-82
2022/06/15 08:11:37;;;;;;;5.28;2.75;;;;;;;29.51;40.81;99481.34;5116093;28;20026;-81
2022/06/15 08:14:27;;;;;;;7.60;2.83;;;;;;;29.53;40.52;99495.50;5093791;28;20389;-81
2022/06/15 08:17:40;;;;;;;6.72;2.22;;;;;;;29.54;40.61;99487.28;5094403;28;20119;-81
2022/06/15 08:20:07;;;;;;;6.82;2.35;;;;;;;29.57;40.43;99491.50;5093023;28;20024;-82
2022/06/15 08:22:34;;;;;;;5.45;2.42;;;;;;;29.58;40.54;99490.53;5097362;28;20398;-82
2022/06/15 08:25:05;;;;;;;4.65;2.42;;;;;;;29.59;40.65;99501.13;5098493;28;20098;-82
2022/06/15 08:27:31;;;;;;;6.43;2.65;;;;;;;29.59;40.51;99490.38;5098154;28;20557;-84
2022/06/15 08:30:04;;;;;;;3.85;1.95;;;;;;;29.61;40.47;99498.28;5097480;28;20169;-82
2022/06/15 08:32:34;;;;;;;6.63;2.67;;;;;;;29.63;40.67;99496.28;5097244;28;20094;-82
2022/06/15 08:35:00;;;;;;;5.50;2.38;;;;;;;29.63;40.35;99496.28;5098778;28;20024;-83
2022/06/15 08:37:31;;;;;;;5.57;2.50;;;;;;;29.65;40.57;99494.31;5097277;28;20128;-83
2022/06/15 08:40:00;;;;;;;5.88;2.25;;;;;;;29.67;40.79;99494.16;5100320;28;20100;-83
2022/06/15 08:42:29;;;;;;;5.40;1.90;;;;;;;29.68;40.71;99494.00;5097180;28;20445;-82
2022/06/15 08:45:16;;;;;;;4.97;2.30;;;;;;;29.70;40.54;99499.22;5097923;28;20040;-82
2022/06/15 08:48:23;;;;;;;5.18;2.70;;;;;;;29.72;40.24;99489.16;5096870;28;20464;-82
2022/06/15 08:51:07;;;;;;;5.30;2.20;;;;;;;29.72;40.23;99492.69;5097139;28;20081;-82
2022/06/15 08:54:00;;;;;;;5.03;2.28;;;;;;;29.74;40.53;99493.38;5097706;28;20507;-81
2022/06/15 08:57:00;;;;;;;4.95;2.47;;;;;;;29.77;40.33;99486.03;5096135;28;20081;-83
2022/06/15 08:59:33;;;;;;;4.40;2.25;;;;;;;29.78;40.70;99491.25;5096256;28;20027;-81
2022/06/15 09:02:05;;;;;;;4.75;2.20;;;;;;;29.80;40.27;99483.03;5096334;28;20024;-82
2022/06/15 09:04:46;;;;;;;5.28;2.20;;;;;;;29.81;40.67;99482.03;5096564;28;20112;-82
2022/06/15 09:08:00;;;;;;;6.65;2.10;;;;;;;29.84;40.21;99487.13;5096536;28;20161;-84
2022/06/15 09:10:50;;;;;;;6.72;2.08;;;;;;;29.84;40.25;99479.03;5019863;28;20025;-84
2022/06/15 09:13:31;;;;;;;6.55;2.40;;;;;;;29.87;40.36;99489.47;5019913;28;20095;-84
2022/06/15 09:16:19;;;;;;;4.15;2.10;;;;;;;29.87;40.41;99484.97;5081062;28;20032;-81
2022/06/15 09:18:54;;;;;;;6.50;2.17;;;;;;;29.89;40.41;99490.19;5098699;28;20373;-85
2022/06/15 09:21:31;;;;;;;5.30;2.50;;;;;;;29.90;40.23;99496.41;5104721;28;20338;-82
2022/06/15 09:24:09;;;;;;;4.28;1.90;;;;;;;29.92;40.21;99494.44;5101541;28;20024;-82
2022/06/15 09:26:41;;;;;;;6.78;2.25;;;;;;;29.94;40.53;99495.97;5102112;28;20032;-84
2022/06/15 09:29:15;;;;;;;3.80;1.90;;;;;;;29.94;40.55;99493.28;5099627;28;20034;-86
2022/06/15 09:32:03;;;;;;;4.72;1.85;;;;;;;29.96;40.29;99480.50;5099581;28;20028;-85
2022/06/15 09:34:36;;;;;;;3.95;2.10;;;;;;;29.97;40.40;99492.97;5101748;28;20453;-83
2022/06/15 09:37:05;;;;;;;4.28;1.80;;;;;;;30.00;40.55;99492.66;5098559;28;20024;-83
2022/06/15 09:39:32;;;;;;;4.30;1.90;;;;;;;30.01;40.36;99494.34;5099765;28;20028;-82
2022/06/15 09:42:03;;;;;;;3.55;1.88;;;;;;;30.02;40.40;99503.28;5099547;28;20067;-82
2022/06/15 09:45:00;;;;;;;5.45;2.38;;;;;;;30.05;40.17;99511.03;5098908;28;20086;-82
2022/06/15 09:47:32;;;;;;;4.80;1.83;;;;;;;30.06;40.05;99511.91;5098687;28;20088;-83
2022/06/15 09:50:07;;;;;;;3.90;2.20;;;;;;;30.08;40.16;99507.19;5097135;28;20032;-84
2022/06/15 09:52:57;;;;;;;4.05;1.88;;;;;;;30.09;40.49;99511.59;5096597;28;20020;-85
2022/06/15 09:55:28;;;;;;;3.70;1.75;;;;;;;30.11;40.47;99520.41;5097035;28;20039;-82
2022/06/15 09:57:54;;;;;;;3.25;1.75;;;;;;;30.12;40.00;99530.16;5100070;28;20020;-82
2022/06/15 10:00:21;;;;;;;4.45;1.92;;;;;;;30.14;40.16;99528.13;5099408;28;20023;-83
2022/06/15 10:02:55;;;;;;;4.10;1.63;;;;;;;30.14;40.23;99525.44;5097768;28;20377;-82
2022/06/15 10:05:52;;;;;;;3.95;1.70;;;;;;;30.17;40.27;99525.16;5099019;28;20062;-84
2022/06/15 10:08:20;;;;;;;4.20;1.90;;;;;;;30.19;40.19;99536.59;5070211;28;20039;-83
2022/06/15 10:10:54;;;;;;;6.97;2.00;;;;;;;30.20;40.50;99546.38;5099478;28;20035;-82
2022/06/15 10:13:20;;;;;;;4.90;1.95;;;;;;;30.22;40.31;99538.97;5099891;28;20048;-84
2022/06/15 10:15:51;;;;;;;3.78;2.00;;;;;;;30.22;40.21;99538.97;5098557;28;20031;-81
2022/06/15 10:18:24;;;;;;;5.18;1.75;;;;;;;30.24;40.13;99541.53;5098656;28;20088;-82
2022/06/15 10:21:04;;;;;;;3.83;1.92;;;;;;;30.25;40.00;99533.31;5098957;28;20035;-82
2022/06/15 10:23:53;;;;;;;5.22;2.00;;;;;;;30.26;40.23;99529.59;5097149;28;20031;-82
2022/06/15 10:27:12;;;;;;;3.78;1.70;;;;;;;30.28;39.96;99538.38;5094905;28;20053;-85
2022/06/15 10:29:38;;;;;;;3.78;2.00;;;;;;;30.30;40.21;99535.53;5074740;28;20059;-82
2022/06/15 10:32:09;;;;;;;5.07;1.70;;;;;;;30.31;40.08;99526.44;5095803;28;20111;-84
2022/06/15 10:34:51;;;;;;;4.55;1.60;;;;;;;30.32;40.29;99530.00;5096515;28;20512;-82
2022/06/15 10:37:41;;;;;;;4.00;1.50;;;;;;;30.36;40.15;99528.69;5095633;28;20012;-82
2022/06/15 10:40:23;;;;;;;4.53;1.77;;;;;;;30.36;39.86;99528.69;5094237;28;20051;-82
2022/06/15 10:43:01;;;;;;;5.38;2.03;;;;;;;30.38;39.78;99526.69;5093952;28;20024;-83
2022/06/15 10:46:03;;;;;;;4.30;1.55;;;;;;;30.39;40.30;99523.84;5093964;28;20050;-83
2022/06/15 10:48:57;;;;;;;5.40;1.77;;;;;;;30.40;39.83;99519.28;5094093;28;20020;-83
2022/06/15 10:51:36;;;;;;;5.22;1.65;;;;;;;30.42;40.19;99517.31;5095115;28;20031;-82
2022/06/15 11:04:36;;;;;;;3.58;1.70;;;;;;;30.49;40.01;99518.38;5095002;28;20369;-84
2022/06/15 11:07:32;;;;;;;5.07;1.65;;;;;;;30.50;39.92;99511.97;5083436;28;20028;-84
2022/06/15 11:10:36;;;;;;;3.70;1.58;;;;;;;30.51;39.85;99502.91;5069397;28;20051;-82
2022/06/15 11:13:27;;;;;;;3.92;1.75;;;;;;;30.53;39.97;99502.75;5093988;28;20059;-83
2022/06/15 11:19:09;;;;;;;3.78;1.70;;;;;;;30.58;39.89;99507.66;5094978;28;20039;-83
2022/06/15 11:28:52;;;;;;;5.28;1.95;;;;;;;30.63;39.80;99497.28;5097356;28;20046;-84
2022/06/15 11:32:56;;;;;;;;;;;;;;;;;;;;;
2022/06/15 11:35:55;;;;;;;4.22;2.40;;;;;;;30.67;40.19;99479.81;5049159;28;20370;-82
2022/06/15 11:38:55;;;;;;;4.43;1.75;;;;;;;30.68;40.07;99478.78;5095251;28;20342;-86
2022/06/15 11:41:52;;;;;;;3.97;1.63;;;;;;;30.69;39.75;99475.13;5093906;28;20039;-84
2022/06/15 11:48:19;;;;;;;3.55;1.52;;;;;;;30.73;39.88;99479.19;5032911;28;19909;-82
2022/06/15 11:51:04;;;;;;;2.90;1.40;;;;;;;30.75;39.99;99481.75;5059292;28;20040;-82
2022/06/15 11:54:31;;;;;;;3.95;1.75;;;;;;;30.76;39.95;99478.03;5093390;28;20092;-82
2022/06/15 11:57:45;;;;;;;4.43;1.70;;;;;;;30.78;39.78;99473.34;5097182;28;20063;-83
2022/06/15 12:00:34;;;;;;;4.13;1.77;;;;;;;30.80;39.94;99476.72;5096773;28;20032;-81
2022/06/15 12:03:09;;;;;;;3.45;1.75;;;;;;;30.83;39.75;99464.81;5097492;28;20476;-82
2022/06/15 12:05:52;;;;;;;4.07;1.70;;;;;;;30.85;39.87;99468.16;5097654;28;20020;-84
2022/06/15 12:08:32;;;;;;;5.50;1.50;;;;;;;30.86;39.96;99464.47;5098528;28;20032;-83
2022/06/15 12:14:29;;;;;;;5.22;1.52;;;;;;;30.88;39.67;99468.69;5113895;28;20503;-81
2022/06/15 12:17:18;;;;;;;4.32;1.60;;;;;;;30.91;39.66;99471.09;5120705;28;20023;-82
2022/06/15 12:19:55;;;;;;;4.43;1.70;;;;;;;30.92;39.98;99463.81;5100754;28;20023;-84
2022/06/15 12:22:54;;;;;;;5.00;1.67;;;;;;;30.93;39.90;99469.06;5100283;28;20023;-82
2022/06/15 12:26:06;;;;;;;4.05;1.50;;;;;;;30.94;39.67;99464.53;5118444;28;20031;-83
2022/06/15 12:29:19;;;;;;;6.15;1.98;;;;;;;30.96;39.98;99465.22;5100141;28;20043;-81
2022/06/15 12:32:42;;;;;;;3.28;1.60;;;;;;;30.98;39.83;99473.97;5118694;28;20017;-82
2022/06/15 12:35:31;;;;;;;4.97;2.17;;;;;;;31.00;39.96;99468.41;5039092;28;20029;-82
2022/06/15 12:38:08;;;;;;;3.45;1.52;;;;;;;31.01;39.74;99468.28;5118261;28;20032;-84
2022/06/15 12:40:45;;;;;;;6.28;1.65;;;;;;;31.03;39.81;99466.25;5118597;28;20093;-83
2022/06/15 12:43:23;;;;;;;4.88;2.08;;;;;;;31.04;39.92;99462.53;5118261;28;20510;-82
2022/06/15 12:45:52;;;;;;;5.25;2.00;;;;;;;31.07;39.74;99461.38;5099906;28;20050;-81
2022/06/15 12:48:54;;;;;;;5.63;1.80;;;;;;;31.10;39.64;99471.00;5118143;28;20080;-85
2022/06/15 12:51:43;;;;;;;4.07;2.05;;;;;;;31.11;39.70;99462.75;5100125;28;20042;-84
2022/06/15 12:54:18;;;;;;;4.22;1.90;;;;;;;31.12;39.59;99463.63;5118184;28;20029;-83
2022/06/15 12:57:06;;;;;;;5.22;2.03;;;;;;;31.15;39.75;99463.28;5118960;28;20030;-84
2022/06/15 12:59:56;;;;;;;6.68;2.05;;;;;;;31.16;39.69;99464.97;5100832;28;20028;-82
2022/06/15 13:02:37;;;;;;;5.72;1.80;;;;;;;31.19;39.95;99459.25;5120450;28;20039;-83
2022/06/15 13:05:12;;;;;;;4.63;1.77;;;;;;;31.20;39.73;99455.56;5118027;28;20028;-82